createdAt,value
2018-07-28T00:00:29.419Z,0.00
2018-07-28T00:01:29.667Z,0.00
2018-07-28T00:02:29.911Z,0.00
2018-07-28T00:03:30.156Z,0.00
2018-07-28T00:04:30.405Z,0.00
2018-07-28T00:05:30.648Z,0.00
2018-07-28T00:06:30.894Z,0.00
2018-07-28T00:07:31.141Z,0.00
2018-07-28T00:08:31.387Z,0.00
2018-07-28T00:09:31.633Z,0.00
2018-07-28T00:10:31.880Z,0.00
2018-07-28T00:11:32.128Z,0.00
2018-07-28T00:12:32.375Z,0.00
2018-07-28T00:13:32.620Z,0.00
2018-07-28T00:14:32.866Z,0.00
2018-07-28T00:15:33.116Z,0.00
2018-07-28T00:16:33.372Z,0.00
2018-07-28T00:17:33.605Z,0.00
2018-07-28T00:18:33.851Z,0.00
2018-07-28T00:19:34.096Z,0.00
2018-07-28T00:20:34.342Z,0.00
2018-07-28T00:21:34.587Z,0.00
2018-07-28T00:22:34.831Z,0.00
2018-07-28T00:23:35.080Z,0.00
2018-07-28T00:24:35.322Z,0.00
2018-07-28T00:25:35.570Z,0.00
2018-07-28T00:26:35.809Z,0.00
2018-07-28T00:27:36.056Z,0.00
2018-07-28T00:28:36.302Z,0.00
2018-07-28T00:29:36.548Z,0.00
2018-07-28T00:30:36.793Z,0.00
2018-07-28T00:31:37.039Z,0.00
2018-07-28T00:32:37.284Z,0.00
2018-07-28T00:33:37.534Z,0.00
2018-07-28T00:34:37.779Z,0.00
2018-07-28T00:35:38.026Z,0.00
2018-07-28T00:36:38.271Z,0.00
2018-07-28T00:37:38.518Z,0.00
2018-07-28T00:38:38.765Z,0.00
2018-07-28T00:39:39.013Z,0.00
2018-07-28T00:40:39.257Z,0.00
2018-07-28T00:41:39.503Z,0.00
2018-07-28T00:42:39.749Z,0.00
2018-07-28T00:43:39.995Z,0.00
2018-07-28T00:44:40.241Z,0.00
2018-07-28T00:45:40.489Z,0.00
2018-07-28T00:46:40.733Z,0.00
2018-07-28T00:47:40.979Z,0.00
2018-07-28T00:48:41.226Z,0.00
2018-07-28T00:49:41.469Z,0.00
2018-07-28T00:50:41.716Z,0.00
2018-07-28T00:51:41.962Z,0.00
2018-07-28T00:52:42.208Z,0.00
2018-07-28T00:53:42.455Z,0.00
2018-07-28T00:54:42.698Z,0.00
2018-07-28T00:55:42.943Z,0.00
2018-07-28T00:56:43.190Z,0.00
2018-07-28T00:57:43.435Z,0.00
2018-07-28T00:58:43.681Z,0.00
2018-07-28T00:59:43.929Z,0.00
2018-07-28T01:00:44.173Z,0.00
2018-07-28T01:01:44.418Z,0.00
2018-07-28T01:02:44.662Z,0.00
2018-07-28T01:03:44.906Z,0.00
2018-07-28T01:04:45.152Z,0.00
2018-07-28T01:05:45.396Z,0.00
2018-07-28T01:06:45.640Z,0.00
2018-07-28T01:07:45.889Z,0.00
2018-07-28T01:08:46.131Z,0.00
2018-07-28T01:09:46.375Z,0.00
2018-07-28T01:10:46.620Z,0.00
2018-07-28T01:11:46.865Z,0.00
2018-07-28T01:12:47.112Z,0.00
2018-07-28T01:13:47.357Z,0.00
2018-07-28T01:14:47.601Z,0.00
2018-07-28T01:15:47.846Z,0.00
2018-07-28T01:16:48.092Z,0.00
2018-07-28T01:17:48.336Z,0.00
2018-07-28T01:18:48.582Z,0.00
2018-07-28T01:19:48.832Z,0.00
2018-07-28T01:20:49.071Z,0.00
2018-07-28T01:21:49.316Z,0.00
2018-07-28T01:22:49.560Z,0.00
2018-07-28T01:23:49.805Z,0.00
2018-07-28T01:24:50.053Z,0.00
2018-07-28T01:25:50.302Z,0.00
2018-07-28T01:26:50.583Z,0.00
2018-07-28T01:27:50.788Z,0.00
2018-07-28T01:28:51.036Z,0.00
2018-07-28T01:29:51.283Z,0.00
2018-07-28T01:30:51.527Z,0.00
2018-07-28T01:31:51.773Z,0.00
2018-07-28T01:32:52.020Z,0.00
2018-07-28T01:33:52.265Z,0.00
2018-07-28T01:34:52.510Z,0.00
2018-07-28T01:35:52.755Z,0.00
2018-07-28T01:36:53.001Z,0.00
2018-07-28T01:37:53.249Z,0.00
2018-07-28T01:38:53.492Z,0.00
2018-07-28T01:39:53.739Z,0.00
2018-07-28T01:40:53.982Z,0.00
2018-07-28T01:41:54.229Z,0.00
2018-07-28T01:42:54.476Z,0.00
2018-07-28T01:43:54.720Z,0.00
2018-07-28T01:44:54.964Z,0.00
2018-07-28T01:45:55.209Z,0.00
2018-07-28T01:46:55.455Z,0.00
2018-07-28T01:47:55.700Z,0.00
2018-07-28T01:48:55.946Z,0.00
2018-07-28T01:49:56.192Z,0.00
2018-07-28T01:50:56.437Z,0.00
2018-07-28T01:51:56.685Z,0.00
2018-07-28T01:52:56.933Z,0.00
2018-07-28T01:53:57.176Z,0.00
2018-07-28T01:54:57.421Z,0.00
2018-07-28T01:55:57.667Z,0.00
2018-07-28T01:56:57.912Z,0.00
2018-07-28T01:57:58.159Z,0.00
2018-07-28T01:58:58.404Z,0.00
2018-07-28T01:59:58.652Z,0.00
2018-07-28T02:00:58.896Z,0.00
2018-07-28T02:01:59.140Z,0.00
2018-07-28T02:02:59.385Z,0.00
2018-07-28T02:03:59.629Z,0.00
2018-07-28T02:04:59.875Z,0.00
2018-07-28T02:06:00.121Z,0.00
2018-07-28T02:07:00.365Z,0.00
2018-07-28T02:08:00.616Z,0.00
2018-07-28T02:09:00.853Z,0.00
2018-07-28T02:10:01.098Z,0.00
2018-07-28T02:11:01.341Z,0.00
2018-07-28T02:12:01.585Z,0.00
2018-07-28T02:13:01.831Z,0.00
2018-07-28T02:14:02.073Z,0.00
2018-07-28T02:15:02.320Z,0.00
2018-07-28T02:16:02.562Z,0.00
2018-07-28T02:17:02.807Z,0.00
2018-07-28T02:18:03.051Z,0.00
2018-07-28T02:19:03.294Z,0.00
2018-07-28T02:20:03.538Z,0.00
2018-07-28T02:21:03.783Z,0.00
2018-07-28T02:22:04.028Z,0.00
2018-07-28T02:23:04.269Z,0.00
2018-07-28T02:24:04.515Z,0.00
2018-07-28T02:25:04.760Z,0.00
2018-07-28T02:26:05.004Z,0.00
2018-07-28T02:27:05.248Z,0.00
2018-07-28T02:28:05.491Z,0.00
2018-07-28T02:29:05.736Z,0.00
2018-07-28T02:30:05.980Z,0.00
2018-07-28T02:31:06.224Z,0.00
2018-07-28T02:32:06.469Z,0.00
2018-07-28T02:33:06.713Z,0.00
2018-07-28T02:34:06.957Z,0.00
2018-07-28T02:35:07.205Z,0.00
2018-07-28T02:36:07.445Z,0.00
2018-07-28T02:37:07.689Z,0.00
2018-07-28T02:38:07.933Z,0.00
2018-07-28T02:39:08.177Z,0.00
2018-07-28T02:40:08.421Z,0.00
2018-07-28T02:41:08.668Z,0.00
2018-07-28T02:42:08.909Z,0.00
2018-07-28T02:43:09.153Z,0.00
2018-07-28T02:44:09.400Z,0.00
2018-07-28T02:45:09.643Z,0.00
2018-07-28T02:46:09.885Z,0.00
2018-07-28T02:47:10.129Z,0.00
2018-07-28T02:48:10.371Z,0.00
2018-07-28T02:49:10.618Z,0.00
2018-07-28T02:50:10.862Z,0.00
2018-07-28T02:51:11.106Z,0.00
2018-07-28T02:52:11.350Z,0.00
2018-07-28T02:53:11.592Z,0.00
2018-07-28T02:54:11.835Z,0.00
2018-07-28T02:55:12.081Z,0.00
2018-07-28T02:56:12.326Z,0.00
2018-07-28T02:57:12.569Z,0.00
2018-07-28T02:58:12.812Z,0.00
2018-07-28T02:59:13.057Z,0.00
2018-07-28T03:00:13.347Z,0.00
2018-07-28T03:01:13.544Z,0.00
2018-07-28T03:02:13.786Z,0.00
2018-07-28T03:03:14.031Z,0.00
2018-07-28T03:04:14.275Z,0.00
2018-07-28T03:05:14.520Z,0.00
2018-07-28T03:06:14.764Z,0.00
2018-07-28T03:07:15.009Z,0.00
2018-07-28T03:08:15.253Z,0.00
2018-07-28T03:09:15.497Z,0.00
2018-07-28T03:10:15.740Z,0.00
2018-07-28T03:11:15.985Z,0.00
2018-07-28T03:12:16.229Z,0.00
2018-07-28T03:13:16.472Z,0.00
2018-07-28T03:14:16.717Z,0.00
2018-07-28T03:15:16.960Z,0.00
2018-07-28T03:16:17.204Z,0.00
2018-07-28T03:17:17.448Z,0.00
2018-07-28T03:18:17.693Z,0.00
2018-07-28T03:19:17.937Z,0.00
2018-07-28T03:20:18.181Z,0.00
2018-07-28T03:21:18.425Z,0.00
2018-07-28T03:22:18.670Z,0.00
2018-07-28T03:23:18.918Z,0.00
2018-07-28T03:24:19.158Z,0.00
2018-07-28T03:25:19.405Z,0.00
2018-07-28T03:26:19.646Z,0.00
2018-07-28T03:27:19.890Z,0.00
2018-07-28T03:28:20.133Z,0.00
2018-07-28T03:29:20.376Z,0.00
2018-07-28T03:30:20.624Z,0.00
2018-07-28T03:31:20.864Z,5.63
2018-07-28T03:32:21.108Z,5.63
2018-07-28T03:33:21.352Z,5.63
2018-07-28T03:34:21.597Z,5.63
2018-07-28T03:35:21.841Z,5.63
2018-07-28T03:36:22.086Z,5.63
2018-07-28T03:37:22.329Z,5.63
2018-07-28T03:38:22.574Z,5.63
2018-07-28T03:39:22.819Z,11.25
2018-07-28T03:40:23.063Z,11.25
2018-07-28T03:41:23.310Z,11.25
2018-07-28T03:42:23.550Z,11.25
2018-07-28T03:43:23.796Z,11.25
2018-07-28T03:44:24.040Z,11.25
2018-07-28T03:45:24.283Z,16.88
2018-07-28T03:46:24.527Z,16.88
2018-07-28T03:47:24.773Z,16.88
2018-07-28T03:48:25.018Z,16.88
2018-07-28T03:49:25.265Z,22.50
2018-07-28T03:50:25.505Z,22.50
2018-07-28T03:51:25.753Z,22.50
2018-07-28T03:52:25.994Z,22.50
2018-07-28T03:53:26.238Z,28.13
2018-07-28T03:54:26.482Z,28.13
2018-07-28T03:55:26.728Z,28.13
2018-07-28T03:56:27.011Z,28.13
2018-07-28T03:57:27.213Z,33.75
2018-07-28T03:58:27.458Z,33.75
2018-07-28T03:59:27.702Z,33.75
2018-07-28T04:00:27.944Z,39.38
2018-07-28T04:01:28.187Z,39.38
2018-07-28T04:02:28.434Z,39.38
2018-07-28T04:03:28.676Z,45.00
2018-07-28T04:04:28.922Z,45.00
2018-07-28T04:05:29.165Z,45.00
2018-07-28T04:06:29.409Z,50.63
2018-07-28T04:07:29.654Z,50.63
2018-07-28T04:08:29.901Z,56.25
2018-07-28T04:09:30.141Z,56.25
2018-07-28T04:10:30.389Z,61.88
2018-07-28T04:11:30.630Z,61.88
2018-07-28T04:12:30.873Z,67.50
2018-07-28T04:13:31.117Z,67.50
2018-07-28T04:14:31.405Z,67.50
2018-07-28T04:15:31.609Z,67.50
2018-07-28T04:16:31.850Z,73.13
2018-07-28T04:17:32.094Z,73.13
2018-07-28T04:18:32.339Z,73.13
2018-07-28T04:19:32.584Z,78.75
2018-07-28T04:20:32.834Z,84.38
2018-07-28T04:21:33.073Z,84.38
2018-07-28T04:22:33.317Z,84.38
2018-07-28T04:23:33.561Z,90.00
2018-07-28T04:24:33.804Z,90.00
2018-07-28T04:25:34.049Z,95.63
2018-07-28T04:26:34.296Z,95.63
2018-07-28T04:27:34.537Z,101.25
2018-07-28T04:28:34.839Z,106.88
2018-07-28T04:29:35.062Z,106.88
2018-07-28T04:30:35.270Z,112.50
2018-07-28T04:31:35.515Z,112.50
2018-07-28T04:32:35.784Z,118.13
2018-07-28T04:33:36.002Z,118.13
2018-07-28T04:34:36.246Z,123.75
2018-07-28T04:35:36.491Z,123.75
2018-07-28T04:36:36.734Z,129.38
2018-07-28T04:37:36.982Z,129.38
2018-07-28T04:38:37.223Z,135.00
2018-07-28T04:39:37.468Z,135.00
2018-07-28T04:40:37.723Z,135.00
2018-07-28T04:41:37.956Z,140.63
2018-07-28T04:42:38.199Z,140.63
2018-07-28T04:43:38.445Z,146.25
2018-07-28T04:44:38.690Z,151.88
2018-07-28T04:45:38.932Z,151.88
2018-07-28T04:46:39.176Z,151.88
2018-07-28T04:47:39.422Z,157.50
2018-07-28T04:48:39.673Z,157.50
2018-07-28T04:49:39.909Z,157.50
2018-07-28T04:50:40.154Z,163.13
2018-07-28T04:51:40.399Z,163.13
2018-07-28T04:52:40.646Z,168.75
2018-07-28T04:53:40.888Z,168.75
2018-07-28T04:54:41.132Z,174.38
2018-07-28T04:55:41.377Z,174.38
2018-07-28T04:56:41.625Z,180.00
2018-07-28T04:57:41.866Z,180.00
2018-07-28T04:58:42.111Z,185.63
2018-07-28T04:59:42.356Z,185.63
2018-07-28T05:00:42.600Z,185.63
2018-07-28T05:01:42.845Z,185.63
2018-07-28T05:02:43.090Z,191.25
2018-07-28T05:03:43.338Z,191.25
2018-07-28T05:04:43.578Z,196.88
2018-07-28T05:05:43.823Z,196.88
2018-07-28T05:06:44.074Z,202.50
2018-07-28T05:07:44.323Z,202.50
2018-07-28T05:08:44.561Z,208.13
2018-07-28T05:09:44.804Z,208.13
2018-07-28T05:10:45.051Z,213.75
2018-07-28T05:11:45.293Z,219.38
2018-07-28T05:12:45.539Z,219.38
2018-07-28T05:13:45.782Z,225.00
2018-07-28T05:14:46.030Z,225.00
2018-07-28T05:15:46.272Z,230.63
2018-07-28T05:16:46.517Z,236.25
2018-07-28T05:17:46.761Z,241.88
2018-07-28T05:18:47.008Z,241.88
2018-07-28T05:19:47.254Z,247.50
2018-07-28T05:20:47.501Z,247.50
2018-07-28T05:21:47.743Z,247.50
2018-07-28T05:22:47.986Z,253.13
2018-07-28T05:23:48.273Z,247.50
2018-07-28T05:24:48.480Z,247.50
2018-07-28T05:25:48.724Z,247.50
2018-07-28T05:26:48.972Z,247.50
2018-07-28T05:27:49.216Z,247.50
2018-07-28T05:28:49.463Z,253.13
2018-07-28T05:29:49.708Z,258.75
2018-07-28T05:30:49.952Z,264.38
2018-07-28T05:31:50.198Z,275.63
2018-07-28T05:32:50.443Z,292.50
2018-07-28T05:33:50.687Z,315.00
2018-07-28T05:34:50.933Z,320.63
2018-07-28T05:35:51.179Z,326.25
2018-07-28T05:36:51.426Z,331.88
2018-07-28T05:37:51.671Z,326.25
2018-07-28T05:38:51.969Z,320.63
2018-07-28T05:39:52.164Z,320.63
2018-07-28T05:40:52.414Z,315.00
2018-07-28T05:41:52.655Z,309.38
2018-07-28T05:42:52.901Z,303.75
2018-07-28T05:43:53.147Z,303.75
2018-07-28T05:44:53.393Z,303.75
2018-07-28T05:45:53.640Z,303.75
2018-07-28T05:46:53.885Z,303.75
2018-07-28T05:47:54.130Z,303.75
2018-07-28T05:48:54.376Z,309.38
2018-07-28T05:49:54.622Z,309.38
2018-07-28T05:50:54.869Z,309.38
2018-07-28T05:51:55.116Z,309.38
2018-07-28T05:52:55.363Z,309.38
2018-07-28T05:53:55.608Z,309.38
2018-07-28T05:54:55.857Z,309.38
2018-07-28T05:55:56.103Z,315.00
2018-07-28T05:56:56.353Z,315.00
2018-07-28T05:57:56.599Z,315.00
2018-07-28T05:58:56.842Z,320.63
2018-07-28T05:59:57.089Z,326.25
2018-07-28T06:00:57.335Z,326.25
2018-07-28T06:01:57.582Z,331.88
2018-07-28T06:02:57.831Z,331.88
2018-07-28T06:03:58.076Z,331.88
2018-07-28T06:04:58.322Z,331.88
2018-07-28T06:05:58.568Z,337.50
2018-07-28T06:06:58.815Z,337.50
2018-07-28T06:07:59.061Z,343.13
2018-07-28T06:08:59.308Z,343.13
2018-07-28T06:09:59.555Z,337.50
2018-07-28T06:10:59.801Z,331.88
2018-07-28T06:12:00.049Z,331.88
2018-07-28T06:13:00.299Z,354.38
2018-07-28T06:14:00.543Z,354.38
2018-07-28T06:15:00.787Z,354.38
2018-07-28T06:16:01.036Z,354.38
2018-07-28T06:17:01.287Z,360.00
2018-07-28T06:18:01.528Z,365.63
2018-07-28T06:19:01.775Z,365.63
2018-07-28T06:20:02.020Z,371.25
2018-07-28T06:21:02.268Z,376.88
2018-07-28T06:22:02.583Z,382.50
2018-07-28T06:23:02.762Z,382.50
2018-07-28T06:24:03.012Z,388.13
2018-07-28T06:25:03.261Z,388.13
2018-07-28T06:26:03.687Z,388.13
2018-07-28T06:27:03.759Z,388.13
2018-07-28T06:28:04.007Z,388.13
2018-07-28T06:29:04.253Z,388.13
2018-07-28T06:30:04.502Z,388.13
2018-07-28T06:31:04.747Z,388.13
2018-07-28T06:32:04.998Z,393.75
2018-07-28T06:33:05.244Z,399.38
2018-07-28T06:34:05.492Z,405.00
2018-07-28T06:35:05.739Z,405.00
2018-07-28T06:36:05.991Z,410.63
2018-07-28T06:37:06.236Z,410.63
2018-07-28T06:38:06.481Z,410.63
2018-07-28T06:39:06.730Z,416.25
2018-07-28T06:40:06.976Z,416.25
2018-07-28T06:41:07.225Z,416.25
2018-07-28T06:42:07.472Z,427.50
2018-07-28T06:43:07.720Z,421.88
2018-07-28T06:44:07.969Z,421.88
2018-07-28T06:45:08.219Z,427.50
2018-07-28T06:46:08.467Z,427.50
2018-07-28T06:47:08.715Z,433.13
2018-07-28T06:48:08.967Z,433.13
2018-07-28T06:49:09.211Z,433.13
2018-07-28T06:50:09.458Z,438.75
2018-07-28T06:51:09.706Z,438.75
2018-07-28T06:52:09.955Z,444.38
2018-07-28T06:53:10.204Z,450.00
2018-07-28T06:54:10.451Z,455.63
2018-07-28T06:55:10.704Z,455.63
2018-07-28T06:56:10.951Z,461.25
2018-07-28T06:57:11.195Z,466.88
2018-07-28T06:58:11.442Z,466.88
2018-07-28T06:59:11.689Z,466.88
2018-07-28T07:00:11.998Z,472.50
2018-07-28T07:01:12.208Z,472.50
2018-07-28T07:02:12.456Z,478.13
2018-07-28T07:03:12.703Z,483.75
2018-07-28T07:04:12.952Z,483.75
2018-07-28T07:05:13.206Z,483.75
2018-07-28T07:06:13.447Z,483.75
2018-07-28T07:07:13.698Z,489.38
2018-07-28T07:08:13.946Z,489.38
2018-07-28T07:09:14.195Z,495.00
2018-07-28T07:10:14.443Z,506.25
2018-07-28T07:11:14.690Z,590.63
2018-07-28T07:12:14.939Z,691.88
2018-07-28T07:13:15.188Z,736.88
2018-07-28T07:14:15.436Z,753.75
2018-07-28T07:15:15.685Z,748.13
2018-07-28T07:16:15.933Z,742.50
2018-07-28T07:17:16.180Z,748.13
2018-07-28T07:18:16.428Z,753.75
2018-07-28T07:19:16.676Z,765.00
2018-07-28T07:20:16.925Z,753.75
2018-07-28T07:21:17.172Z,753.75
2018-07-28T07:22:17.420Z,753.75
2018-07-28T07:23:17.668Z,759.38
2018-07-28T07:24:17.915Z,759.38
2018-07-28T07:25:18.166Z,759.38
2018-07-28T07:26:18.414Z,759.38
2018-07-28T07:27:18.663Z,759.38
2018-07-28T07:28:18.913Z,759.38
2018-07-28T07:29:19.162Z,759.38
2018-07-28T07:30:19.419Z,765.00
2018-07-28T07:31:19.661Z,770.63
2018-07-28T07:32:19.909Z,770.63
2018-07-28T07:33:20.162Z,770.63
2018-07-28T07:34:20.411Z,787.50
2018-07-28T07:35:20.661Z,787.50
2018-07-28T07:36:20.910Z,793.13
2018-07-28T07:37:21.161Z,804.38
2018-07-28T07:38:21.411Z,798.75
2018-07-28T07:39:21.663Z,804.38
2018-07-28T07:40:21.912Z,810.00
2018-07-28T07:41:22.163Z,810.00
2018-07-28T07:42:22.412Z,815.63
2018-07-28T07:43:22.661Z,821.25
2018-07-28T07:44:22.934Z,826.88
2018-07-28T07:45:23.159Z,826.88
2018-07-28T07:46:23.409Z,838.13
2018-07-28T07:47:23.795Z,832.50
2018-07-28T07:48:23.910Z,843.75
2018-07-28T07:49:24.162Z,860.63
2018-07-28T07:50:24.415Z,871.88
2018-07-28T07:51:24.666Z,883.13
2018-07-28T07:52:24.918Z,900.00
2018-07-28T07:53:25.168Z,905.63
2018-07-28T07:54:25.420Z,905.63
2018-07-28T07:55:25.670Z,916.88
2018-07-28T07:56:25.923Z,933.75
2018-07-28T07:57:26.173Z,956.25
2018-07-28T07:58:26.429Z,973.13
2018-07-28T07:59:26.680Z,990.00
2018-07-28T08:00:26.928Z,1023.75
2018-07-28T08:01:27.181Z,1057.50
2018-07-28T08:02:27.435Z,1108.13
2018-07-28T08:03:27.687Z,1147.50
2018-07-28T08:04:27.938Z,1175.63
2018-07-28T08:05:28.192Z,1186.88
2018-07-28T08:06:28.484Z,1198.13
2018-07-28T08:07:28.697Z,1198.13
2018-07-28T08:08:28.949Z,1192.50
2018-07-28T08:09:29.203Z,1209.38
2018-07-28T08:10:29.453Z,1215.00
2018-07-28T08:11:29.703Z,1226.25
2018-07-28T08:12:29.956Z,1243.13
2018-07-28T08:13:30.209Z,1237.50
2018-07-28T08:14:30.464Z,1237.50
2018-07-28T08:15:30.714Z,1248.75
2018-07-28T08:16:30.967Z,1265.63
2018-07-28T08:17:31.217Z,1288.13
2018-07-28T08:18:31.470Z,1310.63
2018-07-28T08:19:31.722Z,1321.88
2018-07-28T08:20:31.974Z,1338.75
2018-07-28T08:21:32.228Z,1355.63
2018-07-28T08:22:32.482Z,1372.50
2018-07-28T08:23:32.735Z,1389.38
2018-07-28T08:24:32.987Z,1406.25
2018-07-28T08:25:33.239Z,1434.38
2018-07-28T08:26:33.493Z,1440.00
2018-07-28T08:27:33.747Z,1462.50
2018-07-28T08:28:33.998Z,1479.38
2018-07-28T08:29:34.252Z,1507.50
2018-07-28T08:30:34.504Z,1535.63
2018-07-28T08:31:34.759Z,1546.88
2018-07-28T08:32:35.013Z,1552.50
2018-07-28T08:33:35.267Z,1558.13
2018-07-28T08:34:35.518Z,1563.75
2018-07-28T08:35:35.771Z,1575.00
2018-07-28T08:36:36.025Z,1586.25
2018-07-28T08:37:36.278Z,1620.00
2018-07-28T08:38:36.530Z,1665.00
2018-07-28T08:39:36.786Z,1715.63
2018-07-28T08:40:37.039Z,1732.50
2018-07-28T08:41:37.294Z,1738.13
2018-07-28T08:42:37.545Z,1743.75
2018-07-28T08:43:37.799Z,1755.00
2018-07-28T08:44:38.053Z,1794.38
2018-07-28T08:45:38.304Z,1839.38
2018-07-28T08:46:38.558Z,1884.38
2018-07-28T08:47:38.812Z,1895.63
2018-07-28T08:48:39.065Z,1940.63
2018-07-28T08:49:39.393Z,1951.88
2018-07-28T08:50:39.575Z,1946.25
2018-07-28T08:51:39.828Z,1946.25
2018-07-28T08:52:40.084Z,1918.13
2018-07-28T08:53:40.339Z,1873.13
2018-07-28T08:54:40.625Z,1867.50
2018-07-28T08:55:40.850Z,1867.50
2018-07-28T08:56:41.107Z,1890.00
2018-07-28T08:57:41.358Z,1929.38
2018-07-28T08:58:41.613Z,1974.38
2018-07-28T08:59:41.867Z,2025.00
2018-07-28T09:00:42.124Z,2058.75
2018-07-28T09:01:42.377Z,2086.88
2018-07-28T09:02:42.633Z,2109.38
2018-07-28T09:03:42.888Z,2109.38
2018-07-28T09:04:43.144Z,2126.25
2018-07-28T09:05:43.399Z,2148.75
2018-07-28T09:06:43.657Z,2154.38
2018-07-28T09:07:43.912Z,2176.88
2018-07-28T09:08:44.168Z,2143.13
2018-07-28T09:09:44.425Z,1946.25
2018-07-28T09:10:44.765Z,2199.38
2018-07-28T09:11:44.936Z,2221.88
2018-07-28T09:12:45.193Z,2176.88
2018-07-28T09:13:45.448Z,2064.38
2018-07-28T09:14:45.704Z,1597.50
2018-07-28T09:15:45.961Z,1676.25
2018-07-28T09:16:46.218Z,1445.63
2018-07-28T09:17:46.512Z,1783.13
2018-07-28T09:18:46.728Z,1653.75
2018-07-28T09:19:46.988Z,1625.63
2018-07-28T09:20:47.242Z,1749.38
2018-07-28T09:21:47.496Z,1704.38
2018-07-28T09:22:47.752Z,1676.25
2018-07-28T09:23:48.013Z,1485.00
2018-07-28T09:24:48.264Z,1231.88
2018-07-28T09:25:48.521Z,607.50
2018-07-28T09:26:48.777Z,568.13
2018-07-28T09:27:49.023Z,613.13
2018-07-28T09:28:49.274Z,573.75
2018-07-28T09:29:49.531Z,545.63
2018-07-28T09:30:49.787Z,551.25
2018-07-28T09:31:50.044Z,534.38
2018-07-28T09:32:50.299Z,534.38
2018-07-28T09:33:50.554Z,540.00
2018-07-28T09:34:50.809Z,534.38
2018-07-28T09:35:51.064Z,528.75
2018-07-28T09:36:51.370Z,523.13
2018-07-28T09:37:51.572Z,528.75
2018-07-28T09:38:51.824Z,534.38
2018-07-28T09:39:52.078Z,545.63
2018-07-28T09:40:52.336Z,551.25
2018-07-28T09:41:52.586Z,573.75
2018-07-28T09:42:52.838Z,590.63
2018-07-28T09:43:53.091Z,618.75
2018-07-28T09:44:53.345Z,641.25
2018-07-28T09:45:53.597Z,652.50
2018-07-28T09:46:53.895Z,680.63
2018-07-28T09:47:54.103Z,708.75
2018-07-28T09:48:54.356Z,748.13
2018-07-28T09:49:54.608Z,776.25
2018-07-28T09:50:54.861Z,787.50
2018-07-28T09:51:55.116Z,781.88
2018-07-28T09:52:55.368Z,770.63
2018-07-28T09:53:55.620Z,770.63
2018-07-28T09:54:55.872Z,787.50
2018-07-28T09:55:56.125Z,793.13
2018-07-28T09:56:56.380Z,804.38
2018-07-28T09:57:56.631Z,832.50
2018-07-28T09:58:56.891Z,849.38
2018-07-28T09:59:57.137Z,855.00
2018-07-28T10:00:57.390Z,849.38
2018-07-28T10:01:57.641Z,832.50
2018-07-28T10:02:57.894Z,838.13
2018-07-28T10:03:58.147Z,849.38
2018-07-28T10:04:58.399Z,855.00
2018-07-28T10:05:58.652Z,888.75
2018-07-28T10:06:58.904Z,933.75
2018-07-28T10:07:59.155Z,1001.25
2018-07-28T10:08:59.407Z,1046.25
2018-07-28T10:09:59.659Z,1113.75
2018-07-28T10:10:59.910Z,1518.75
2018-07-28T10:12:00.162Z,1681.88
2018-07-28T10:13:00.415Z,2148.75
2018-07-28T10:14:00.667Z,2306.25
2018-07-28T10:15:00.921Z,1856.25
2018-07-28T10:16:01.173Z,2356.88
2018-07-28T10:17:01.425Z,2413.13
2018-07-28T10:18:01.680Z,2508.75
2018-07-28T10:19:01.932Z,2565.00
2018-07-28T10:20:02.185Z,2255.63
2018-07-28T10:21:02.437Z,2446.88
2018-07-28T10:22:02.692Z,1895.63
2018-07-28T10:23:02.950Z,2435.63
2018-07-28T10:24:03.193Z,2536.88
2018-07-28T10:25:03.447Z,2266.88
2018-07-28T10:26:03.700Z,2160.00
2018-07-28T10:27:03.953Z,2261.25
2018-07-28T10:28:04.209Z,2317.50
2018-07-28T10:29:04.464Z,2233.13
2018-07-28T10:30:04.749Z,2340.00
2018-07-28T10:31:04.975Z,2356.88
2018-07-28T10:32:05.229Z,2143.13
2018-07-28T10:33:05.489Z,2070.00
2018-07-28T10:34:05.739Z,1878.75
2018-07-28T10:35:05.994Z,1524.38
2018-07-28T10:36:06.250Z,1310.63
2018-07-28T10:37:06.505Z,1186.88
2018-07-28T10:38:06.758Z,1158.75
2018-07-28T10:39:07.016Z,1231.88
2018-07-28T10:40:07.267Z,1181.25
2018-07-28T10:41:07.519Z,1220.63
2018-07-28T10:42:07.777Z,1181.25
2018-07-28T10:43:08.033Z,1366.88
2018-07-28T10:44:08.285Z,1845.00
2018-07-28T10:45:08.537Z,1642.50
2018-07-28T10:46:08.791Z,1603.13
2018-07-28T10:47:09.042Z,1563.75
2018-07-28T10:48:09.297Z,1749.38
2018-07-28T10:49:09.552Z,1715.63
2018-07-28T10:50:09.806Z,1873.13
2018-07-28T10:51:10.060Z,1940.63
2018-07-28T10:52:10.316Z,1687.50
2018-07-28T10:53:10.567Z,1946.25
2018-07-28T10:54:10.822Z,1968.75
2018-07-28T10:55:11.077Z,1603.13
2018-07-28T10:56:11.329Z,1423.13
2018-07-28T10:57:11.585Z,1265.63
2018-07-28T10:58:11.839Z,1203.75
2018-07-28T10:59:12.090Z,1198.13
2018-07-28T11:00:12.419Z,1237.50
2018-07-28T11:01:12.599Z,1226.25
2018-07-28T11:02:12.853Z,1305.00
2018-07-28T11:03:13.106Z,1327.50
2018-07-28T11:04:13.359Z,1524.38
2018-07-28T11:05:13.614Z,1496.25
2018-07-28T11:06:13.864Z,1220.63
2018-07-28T11:07:14.118Z,1299.38
2018-07-28T11:08:14.371Z,1305.00
2018-07-28T11:09:14.681Z,1136.25
2018-07-28T11:10:14.876Z,1130.63
2018-07-28T11:11:15.128Z,1141.88
2018-07-28T11:12:15.382Z,1215.00
2018-07-28T11:13:15.634Z,1231.88
2018-07-28T11:14:15.890Z,1237.50
2018-07-28T11:15:16.141Z,1305.00
2018-07-28T11:16:16.395Z,1276.88
2018-07-28T11:17:16.647Z,1248.75
2018-07-28T11:18:16.904Z,1372.50
2018-07-28T11:19:17.157Z,1428.75
2018-07-28T11:20:17.409Z,1400.63
2018-07-28T11:21:17.658Z,1833.75
2018-07-28T11:22:17.912Z,2081.25
2018-07-28T11:23:18.166Z,2058.75
2018-07-28T11:24:18.417Z,2250.00
2018-07-28T11:25:18.669Z,2334.38
2018-07-28T11:26:18.941Z,1608.75
2018-07-28T11:27:19.174Z,1951.88
2018-07-28T11:28:19.429Z,1845.00
2018-07-28T11:29:19.682Z,2559.38
2018-07-28T11:30:19.933Z,2143.13
2018-07-28T11:31:20.187Z,1687.50
2018-07-28T11:32:20.447Z,1445.63
2018-07-28T11:33:20.710Z,1344.38
2018-07-28T11:34:20.949Z,1434.38
2018-07-28T11:35:21.204Z,1597.50
2018-07-28T11:36:21.457Z,1738.13
2018-07-28T11:37:21.710Z,1833.75
2018-07-28T11:38:21.967Z,1884.38
2018-07-28T11:39:22.217Z,1918.13
2018-07-28T11:40:22.472Z,1715.63
2018-07-28T11:41:22.725Z,1732.50
2018-07-28T11:42:22.980Z,1636.88
2018-07-28T11:43:23.233Z,1563.75
2018-07-28T11:44:23.486Z,1681.88
2018-07-28T11:45:23.740Z,1411.88
2018-07-28T11:46:23.995Z,1395.00
2018-07-28T11:47:24.249Z,1288.13
2018-07-28T11:48:24.503Z,1136.25
2018-07-28T11:49:24.757Z,1029.38
2018-07-28T11:50:25.018Z,973.13
2018-07-28T11:51:25.366Z,877.50
2018-07-28T11:52:25.519Z,821.25
2018-07-28T11:53:25.773Z,776.25
2018-07-28T11:54:26.026Z,748.13
2018-07-28T11:55:26.297Z,731.25
2018-07-28T11:56:26.533Z,703.13
2018-07-28T11:57:26.787Z,697.50
2018-07-28T11:58:27.047Z,691.88
2018-07-28T11:59:27.291Z,697.50
2018-07-28T12:00:27.547Z,703.13
2018-07-28T12:01:27.796Z,708.75
2018-07-28T12:02:28.049Z,708.75
2018-07-28T12:03:28.302Z,703.13
2018-07-28T12:04:28.555Z,697.50
2018-07-28T12:05:28.812Z,703.13
2018-07-28T12:06:29.059Z,703.13
2018-07-28T12:07:29.311Z,708.75
2018-07-28T12:08:29.563Z,725.63
2018-07-28T12:09:29.815Z,759.38
2018-07-28T12:10:30.071Z,781.88
2018-07-28T12:11:30.324Z,804.38
2018-07-28T12:12:30.631Z,832.50
2018-07-28T12:13:30.828Z,838.13
2018-07-28T12:14:31.080Z,860.63
2018-07-28T12:15:31.338Z,877.50
2018-07-28T12:16:31.584Z,894.38
2018-07-28T12:17:31.835Z,916.88
2018-07-28T12:18:32.115Z,945.00
2018-07-28T12:19:32.339Z,1012.50
2018-07-28T12:20:32.590Z,1203.75
2018-07-28T12:21:32.843Z,1625.63
2018-07-28T12:22:33.098Z,1164.38
2018-07-28T12:23:33.346Z,1018.13
2018-07-28T12:24:33.597Z,911.25
2018-07-28T12:25:33.856Z,855.00
2018-07-28T12:26:34.105Z,826.88
2018-07-28T12:27:34.354Z,815.63
2018-07-28T12:28:34.610Z,821.25
2018-07-28T12:29:34.858Z,843.75
2018-07-28T12:30:35.110Z,877.50
2018-07-28T12:31:35.362Z,905.63
2018-07-28T12:32:35.613Z,1029.38
2018-07-28T12:33:35.865Z,832.50
2018-07-28T12:34:36.163Z,776.25
2018-07-28T12:35:36.369Z,731.25
2018-07-28T12:36:36.622Z,663.75
2018-07-28T12:37:36.874Z,624.38
2018-07-28T12:38:37.125Z,613.13
2018-07-28T12:39:37.376Z,601.88
2018-07-28T12:40:37.627Z,601.88